sensor_id;sensor_type;location;lat;lon;timestamp;P1;durP1;ratioP1;P2;durP2;ratioP2
20090;SDS011;10205;49.678;6.560;2022-10-16T00:01:17;3.53;;;0.93;;
20090;SDS011;10205;49.678;6.560;2022-10-16T00:03:49;0.80;;;0.73;;
20090;SDS011;10205;49.678;6.560;2022-10-16T00:06:19;3.45;;;0.95;;
20090;SDS011;10205;49.678;6.560;2022-10-16T00:08:48;3.67;;;0.90;;
20090;SDS011;10205;49.678;6.560;2022-10-16T00:11:17;1.08;;;0.70;;
20090;SDS011;10205;49.678;6.560;2022-10-16T00:13:47;2.30;;;0.68;;
20090;SDS011;10205;49.678;6.560;2022-10-16T00:16:17;2.78;;;0.98;;
20090;SDS011;10205;49.678;6.560;2022-10-16T00:18:45;2.38;;;1.00;;
20090;SDS011;10205;49.678;6.560;2022-10-16T00:21:13;2.65;;;1.00;;
20090;SDS011;10205;49.678;6.560;2022-10-16T00:23:45;1.02;;;0.90;;
20090;SDS011;10205;49.678;6.560;2022-10-16T00:26:14;0.82;;;0.77;;
20090;SDS011;10205;49.678;6.560;2022-10-16T00:28:45;0.60;;;0.60;;
20090;SDS011;10205;49.678;6.560;2022-10-16T00:31:13;1.33;;;0.63;;
20090;SDS011;10205;49.678;6.560;2022-10-16T00:33:43;2.15;;;0.60;;
20090;SDS011;10205;49.678;6.560;2022-10-16T00:36:11;1.50;;;0.98;;
20090;SDS011;10205;49.678;6.560;2022-10-16T00:38:41;1.02;;;0.80;;
20090;SDS011;10205;49.678;6.560;2022-10-16T00:41:11;1.40;;;0.80;;
20090;SDS011;10205;49.678;6.560;2022-10-16T00:43:43;3.53;;;0.75;;
20090;SDS011;10205;49.678;6.560;2022-10-16T00:46:14;2.05;;;1.10;;
20090;SDS011;10205;49.678;6.560;2022-10-16T00:48:46;0.80;;;0.80;;
20090;SDS011;10205;49.678;6.560;2022-10-16T00:51:19;4.22;;;1.00;;
20090;SDS011;10205;49.678;6.560;2022-10-16T00:53:54;3.03;;;0.90;;
20090;SDS011;10205;49.678;6.560;2022-10-16T00:56:24;3.08;;;0.80;;
20090;SDS011;10205;49.678;6.560;2022-10-16T00:58:52;1.58;;;0.75;;
20090;SDS011;10205;49.678;6.560;2022-10-16T01:01:19;2.47;;;0.80;;
20090;SDS011;10205;49.678;6.560;2022-10-16T01:03:47;3.63;;;0.70;;
20090;SDS011;10205;49.678;6.560;2022-10-16T01:06:23;0.95;;;0.68;;
20090;SDS011;10205;49.678;6.560;2022-10-16T01:09:03;0.70;;;0.60;;
20090;SDS011;10205;49.678;6.560;2022-10-16T01:11:48;0.70;;;0.63;;
20090;SDS011;10205;49.678;6.560;2022-10-16T01:14:27;0.60;;;0.60;;
20090;SDS011;10205;49.678;6.560;2022-10-16T01:17:08;3.63;;;0.85;;
20090;SDS011;10205;49.678;6.560;2022-10-16T01:19:50;1.45;;;0.70;;
20090;SDS011;10205;49.678;6.560;2022-10-16T01:22:33;2.42;;;0.82;;
20090;SDS011;10205;49.678;6.560;2022-10-16T01:25:25;2.50;;;0.73;;
20090;SDS011;10205;49.678;6.560;2022-10-16T01:28:16;1.88;;;0.68;;
20090;SDS011;10205;49.678;6.560;2022-10-16T01:30:48;3.10;;;0.70;;
20090;SDS011;10205;49.678;6.560;2022-10-16T01:33:23;2.47;;;0.70;;
20090;SDS011;10205;49.678;6.560;2022-10-16T01:35:58;1.08;;;0.70;;
20090;SDS011;10205;49.678;6.560;2022-10-16T01:38:34;0.80;;;0.70;;
20090;SDS011;10205;49.678;6.560;2022-10-16T01:41:08;3.55;;;1.20;;
20090;SDS011;10205;49.678;6.560;2022-10-16T01:43:43;0.95;;;0.70;;
20090;SDS011;10205;49.678;6.560;2022-10-16T01:46:18;1.45;;;0.77;;
20090;SDS011;10205;49.678;6.560;2022-10-16T01:48:48;1.63;;;0.90;;
20090;SDS011;10205;49.678;6.560;2022-10-16T01:51:18;1.77;;;0.60;;
20090;SDS011;10205;49.678;6.560;2022-10-16T01:53:48;2.35;;;0.60;;
20090;SDS011;10205;49.678;6.560;2022-10-16T01:56:20;1.52;;;0.68;;
20090;SDS011;10205;49.678;6.560;2022-10-16T01:58:54;1.58;;;0.77;;
20090;SDS011;10205;49.678;6.560;2022-10-16T02:01:26;0.90;;;0.70;;
20090;SDS011;10205;49.678;6.560;2022-10-16T02:04:01;0.63;;;0.63;;
20090;SDS011;10205;49.678;6.560;2022-10-16T02:06:35;3.53;;;0.85;;
20090;SDS011;10205;49.678;6.560;2022-10-16T02:09:02;0.60;;;0.60;;
20090;SDS011;10205;49.678;6.560;2022-10-16T02:11:29;1.33;;;0.60;;
20090;SDS011;10205;49.678;6.560;2022-10-16T02:14:00;2.88;;;0.70;;
20090;SDS011;10205;49.678;6.560;2022-10-16T02:16:34;1.27;;;0.80;;
20090;SDS011;10205;49.678;6.560;2022-10-16T02:19:05;0.95;;;0.63;;
20090;SDS011;10205;49.678;6.560;2022-10-16T02:21:33;2.45;;;0.80;;
20090;SDS011;10205;49.678;6.560;2022-10-16T02:24:12;0.88;;;0.70;;
20090;SDS011;10205;49.678;6.560;2022-10-16T02:26:52;3.05;;;0.60;;
20090;SDS011;10205;49.678;6.560;2022-10-16T02:29:28;3.42;;;0.82;;
20090;SDS011;10205;49.678;6.560;2022-10-16T02:31:58;1.27;;;0.63;;
20090;SDS011;10205;49.678;6.560;2022-10-16T02:34:30;1.38;;;0.60;;
20090;SDS011;10205;49.678;6.560;2022-10-16T02:37:00;1.75;;;0.80;;
20090;SDS011;10205;49.678;6.560;2022-10-16T02:39:31;2.47;;;0.50;;
20090;SDS011;10205;49.678;6.560;2022-10-16T02:42:00;0.65;;;0.60;;
20090;SDS011;10205;49.678;6.560;2022-10-16T02:44:30;1.95;;;0.68;;
20090;SDS011;10205;49.678;6.560;2022-10-16T02:46:57;1.50;;;0.65;;
20090;SDS011;10205;49.678;6.560;2022-10-16T02:49:24;2.10;;;0.63;;
20090;SDS011;10205;49.678;6.560;2022-10-16T02:51:51;1.67;;;0.70;;
20090;SDS011;10205;49.678;6.560;2022-10-16T02:54:18;1.95;;;0.70;;
20090;SDS011;10205;49.678;6.560;2022-10-16T02:56:45;1.42;;;0.80;;
20090;SDS011;10205;49.678;6.560;2022-10-16T02:59:12;1.48;;;0.60;;
20090;SDS011;10205;49.678;6.560;2022-10-16T03:01:41;1.08;;;0.70;;
20090;SDS011;10205;49.678;6.560;2022-10-16T03:04:08;0.82;;;0.70;;
20090;SDS011;10205;49.678;6.560;2022-10-16T03:06:35;1.63;;;0.68;;
20090;SDS011;10205;49.678;6.560;2022-10-16T03:09:02;1.73;;;0.70;;
20090;SDS011;10205;49.678;6.560;2022-10-16T03:11:29;1.58;;;0.73;;
20090;SDS011;10205;49.678;6.560;2022-10-16T03:13:57;0.60;;;0.60;;
20090;SDS011;10205;49.678;6.560;2022-10-16T03:16:24;1.30;;;0.68;;
20090;SDS011;10205;49.678;6.560;2022-10-16T03:18:52;1.25;;;0.60;;
20090;SDS011;10205;49.678;6.560;2022-10-16T03:21:19;2.58;;;0.63;;
20090;SDS011;10205;49.678;6.560;2022-10-16T03:23:47;1.13;;;0.70;;
20090;SDS011;10205;49.678;6.560;2022-10-16T03:26:14;1.73;;;0.70;;
20090;SDS011;10205;49.678;6.560;2022-10-16T03:28:41;2.72;;;0.80;;
20090;SDS011;10205;49.678;6.560;2022-10-16T03:31:09;1.67;;;0.65;;
20090;SDS011;10205;49.678;6.560;2022-10-16T03:33:36;0.95;;;0.65;;
20090;SDS011;10205;49.678;6.560;2022-10-16T03:36:05;1.83;;;0.80;;
20090;SDS011;10205;49.678;6.560;2022-10-16T03:38:32;4.13;;;0.80;;
20090;SDS011;10205;49.678;6.560;2022-10-16T03:40:59;0.70;;;0.70;;
20090;SDS011;10205;49.678;6.560;2022-10-16T03:43:27;1.92;;;0.80;;
20090;SDS011;10205;49.678;6.560;2022-10-16T03:45:54;1.20;;;0.75;;
20090;SDS011;10205;49.678;6.560;2022-10-16T03:48:21;0.90;;;0.90;;
20090;SDS011;10205;49.678;6.560;2022-10-16T03:50:48;1.35;;;0.80;;
20090;SDS011;10205;49.678;6.560;2022-10-16T03:53:18;2.80;;;0.70;;
20090;SDS011;10205;49.678;6.560;2022-10-16T03:55:45;0.70;;;0.70;;
20090;SDS011;10205;49.678;6.560;2022-10-16T03:58:12;2.58;;;1.00;;
20090;SDS011;10205;49.678;6.560;2022-10-16T04:00:40;1.20;;;0.90;;
20090;SDS011;10205;49.678;6.560;2022-10-16T04:03:08;0.90;;;0.80;;
20090;SDS011;10205;49.678;6.560;2022-10-16T04:05:35;1.85;;;0.80;;
20090;SDS011;10205;49.678;6.560;2022-10-16T04:08:02;1.92;;;0.60;;
20090;SDS011;10205;49.678;6.560;2022-10-16T04:10:32;3.22;;;0.80;;
20090;SDS011;10205;49.678;6.560;2022-10-16T04:12:59;2.35;;;0.70;;
20090;SDS011;10205;49.678;6.560;2022-10-16T04:15:26;2.38;;;0.68;;
20090;SDS011;10205;49.678;6.560;2022-10-16T04:17:53;0.60;;;0.60;;
20090;SDS011;10205;49.678;6.560;2022-10-16T04:20:20;1.05;;;0.88;;
20090;SDS011;10205;49.678;6.560;2022-10-16T04:22:47;0.60;;;0.60;;
20090;SDS011;10205;49.678;6.560;2022-10-16T04:25:15;2.15;;;0.80;;
20090;SDS011;10205;49.678;6.560;2022-10-16T04:27:43;0.75;;;0.70;;
20090;SDS011;10205;49.678;6.560;2022-10-16T04:30:11;1.25;;;0.80;;
20090;SDS011;10205;49.678;6.560;2022-10-16T04:32:38;1.48;;;0.68;;
20090;SDS011;10205;49.678;6.560;2022-10-16T04:35:06;1.13;;;0.70;;
20090;SDS011;10205;49.678;6.560;2022-10-16T04:37:34;0.77;;;0.77;;
20090;SDS011;10205;49.678;6.560;2022-10-16T04:40:01;0.70;;;0.70;;
20090;SDS011;10205;49.678;6.560;2022-10-16T04:42:29;2.95;;;0.82;;
20090;SDS011;10205;49.678;6.560;2022-10-16T04:44:58;2.20;;;0.70;;
20090;SDS011;10205;49.678;6.560;2022-10-16T04:47:25;1.50;;;0.60;;
20090;SDS011;10205;49.678;6.560;2022-10-16T04:49:52;0.60;;;0.60;;
20090;SDS011;10205;49.678;6.560;2022-10-16T04:52:19;0.65;;;0.65;;
20090;SDS011;10205;49.678;6.560;2022-10-16T04:54:49;2.25;;;0.90;;
20090;SDS011;10205;49.678;6.560;2022-10-16T04:57:21;5.10;;;1.20;;
20090;SDS011;10205;49.678;6.560;2022-10-16T04:59:48;2.53;;;0.70;;
20090;SDS011;10205;49.678;6.560;2022-10-16T05:02:17;2.10;;;0.77;;
20090;SDS011;10205;49.678;6.560;2022-10-16T05:04:44;1.95;;;0.60;;
20090;SDS011;10205;49.678;6.560;2022-10-16T05:07:11;1.45;;;0.70;;
20090;SDS011;10205;49.678;6.560;2022-10-16T05:09:38;0.68;;;0.68;;
20090;SDS011;10205;49.678;6.560;2022-10-16T05:12:05;2.70;;;0.80;;
20090;SDS011;10205;49.678;6.560;2022-10-16T05:14:32;0.80;;;0.60;;
20090;SDS011;10205;49.678;6.560;2022-10-16T05:17:03;0.68;;;0.60;;
20090;SDS011;10205;49.678;6.560;2022-10-16T05:19:31;1.52;;;0.60;;
20090;SDS011;10205;49.678;6.560;2022-10-16T05:21:59;1.60;;;0.50;;
20090;SDS011;10205;49.678;6.560;2022-10-16T05:24:29;1.95;;;0.63;;
20090;SDS011;10205;49.678;6.560;2022-10-16T05:26:56;1.02;;;0.60;;
20090;SDS011;10205;49.678;6.560;2022-10-16T05:29:23;1.38;;;0.70;;
20090;SDS011;10205;49.678;6.560;2022-10-16T05:31:51;1.92;;;0.50;;
20090;SDS011;10205;49.678;6.560;2022-10-16T05:34:19;0.77;;;0.70;;
20090;SDS011;10205;49.678;6.560;2022-10-16T05:36:49;0.90;;;0.70;;
20090;SDS011;10205;49.678;6.560;2022-10-16T05:39:16;2.80;;;0.98;;
20090;SDS011;10205;49.678;6.560;2022-10-16T05:41:44;1.50;;;0.75;;
20090;SDS011;10205;49.678;6.560;2022-10-16T05:44:11;1.30;;;0.70;;
20090;SDS011;10205;49.678;6.560;2022-10-16T05:46:38;1.80;;;0.98;;
20090;SDS011;10205;49.678;6.560;2022-10-16T05:49:05;1.60;;;0.77;;
20090;SDS011;10205;49.678;6.560;2022-10-16T05:51:32;0.80;;;0.70;;
20090;SDS011;10205;49.678;6.560;2022-10-16T05:54:01;2.25;;;0.93;;
20090;SDS011;10205;49.678;6.560;2022-10-16T05:56:28;1.35;;;0.55;;
20090;SDS011;10205;49.678;6.560;2022-10-16T05:58:56;0.75;;;0.70;;
20090;SDS011;10205;49.678;6.560;2022-10-16T06:01:23;0.70;;;0.60;;
20090;SDS011;10205;49.678;6.560;2022-10-16T06:03:50;1.00;;;0.90;;
20090;SDS011;10205;49.678;6.560;2022-10-16T06:06:19;0.98;;;0.70;;
20090;SDS011;10205;49.678;6.560;2022-10-16T06:08:51;0.90;;;0.50;;
20090;SDS011;10205;49.678;6.560;2022-10-16T06:11:22;0.80;;;0.70;;
20090;SDS011;10205;49.678;6.560;2022-10-16T06:13:52;0.77;;;0.70;;
20090;SDS011;10205;49.678;6.560;2022-10-16T06:16:21;1.30;;;0.80;;
20090;SDS011;10205;49.678;6.560;2022-10-16T06:18:50;0.50;;;0.50;;
20090;SDS011;10205;49.678;6.560;2022-10-16T06:21:19;3.15;;;1.00;;
20090;SDS011;10205;49.678;6.560;2022-10-16T06:23:50;2.05;;;0.90;;
20090;SDS011;10205;49.678;6.560;2022-10-16T06:26:19;0.88;;;0.70;;
20090;SDS011;10205;49.678;6.560;2022-10-16T06:28:50;1.42;;;0.77;;
20090;SDS011;10205;49.678;6.560;2022-10-16T06:31:17;1.42;;;0.82;;
20090;SDS011;10205;49.678;6.560;2022-10-16T06:33:44;6.25;;;1.00;;
20090;SDS011;10205;49.678;6.560;2022-10-16T06:36:13;0.88;;;0.77;;
20090;SDS011;10205;49.678;6.560;2022-10-16T06:38:41;0.88;;;0.70;;
20090;SDS011;10205;49.678;6.560;2022-10-16T06:41:10;1.08;;;0.70;;
20090;SDS011;10205;49.678;6.560;2022-10-16T06:43:41;0.90;;;0.60;;
20090;SDS011;10205;49.678;6.560;2022-10-16T06:46:10;1.73;;;0.80;;
20090;SDS011;10205;49.678;6.560;2022-10-16T06:48:39;1.08;;;0.77;;
20090;SDS011;10205;49.678;6.560;2022-10-16T06:51:08;1.13;;;0.90;;
20090;SDS011;10205;49.678;6.560;2022-10-16T06:53:39;0.80;;;0.80;;
20090;SDS011;10205;49.678;6.560;2022-10-16T06:56:10;2.80;;;1.00;;
20090;SDS011;10205;49.678;6.560;2022-10-16T06:58:42;1.45;;;0.75;;
20090;SDS011;10205;49.678;6.560;2022-10-16T07:01:10;1.00;;;0.77;;
20090;SDS011;10205;49.678;6.560;2022-10-16T07:03:40;2.08;;;0.90;;
20090;SDS011;10205;49.678;6.560;2022-10-16T07:06:10;4.13;;;1.00;;
20090;SDS011;10205;49.678;6.560;2022-10-16T07:08:40;1.92;;;1.05;;
20090;SDS011;10205;49.678;6.560;2022-10-16T07:11:10;1.73;;;1.30;;
20090;SDS011;10205;49.678;6.560;2022-10-16T07:13:40;5.10;;;1.05;;
20090;SDS011;10205;49.678;6.560;2022-10-16T07:16:10;4.32;;;1.13;;
20090;SDS011;10205;49.678;6.560;2022-10-16T07:18:40;1.00;;;0.90;;
20090;SDS011;10205;49.678;6.560;2022-10-16T07:21:11;3.83;;;1.17;;
20090;SDS011;10205;49.678;6.560;2022-10-16T07:23:41;2.22;;;1.05;;
20090;SDS011;10205;49.678;6.560;2022-10-16T07:26:08;1.58;;;1.00;;
20090;SDS011;10205;49.678;6.560;2022-10-16T07:28:37;3.53;;;1.17;;
20090;SDS011;10205;49.678;6.560;2022-10-16T07:31:07;1.05;;;0.88;;
20090;SDS011;10205;49.678;6.560;2022-10-16T07:33:38;2.90;;;1.17;;
20090;SDS011;10205;49.678;6.560;2022-10-16T07:36:09;1.25;;;1.15;;
20090;SDS011;10205;49.678;6.560;2022-10-16T07:38:37;1.98;;;1.38;;
20090;SDS011;10205;49.678;6.560;2022-10-16T07:41:06;1.75;;;1.15;;
20090;SDS011;10205;49.678;6.560;2022-10-16T07:43:37;3.72;;;1.80;;
20090;SDS011;10205;49.678;6.560;2022-10-16T07:46:04;4.72;;;1.38;;
20090;SDS011;10205;49.678;6.560;2022-10-16T07:48:34;1.98;;;1.55;;
20090;SDS011;10205;49.678;6.560;2022-10-16T07:51:02;8.63;;;1.20;;
20090;SDS011;10205;49.678;6.560;2022-10-16T07:53:31;4.70;;;1.48;;
20090;SDS011;10205;49.678;6.560;2022-10-16T07:56:00;1.77;;;1.15;;
20090;SDS011;10205;49.678;6.560;2022-10-16T07:58:30;1.15;;;0.90;;
20090;SDS011;10205;49.678;6.560;2022-10-16T08:01:02;2.40;;;1.17;;
20090;SDS011;10205;49.678;6.560;2022-10-16T08:03:32;1.75;;;1.05;;
20090;SDS011;10205;49.678;6.560;2022-10-16T08:05:59;1.58;;;0.95;;
20090;SDS011;10205;49.678;6.560;2022-10-16T08:08:28;4.35;;;1.20;;
20090;SDS011;10205;49.678;6.560;2022-10-16T08:10:55;1.38;;;1.27;;
20090;SDS011;10205;49.678;6.560;2022-10-16T08:13:22;2.95;;;1.20;;
20090;SDS011;10205;49.678;6.560;2022-10-16T08:15:51;1.00;;;0.90;;
20090;SDS011;10205;49.678;6.560;2022-10-16T08:18:20;0.77;;;0.77;;
20090;SDS011;10205;49.678;6.560;2022-10-16T08:20:55;1.65;;;1.00;;
20090;SDS011;10205;49.678;6.560;2022-10-16T08:23:25;5.03;;;1.40;;
20090;SDS011;10205;49.678;6.560;2022-10-16T08:25:53;1.42;;;1.17;;
20090;SDS011;10205;49.678;6.560;2022-10-16T08:28:21;3.33;;;1.20;;
20090;SDS011;10205;49.678;6.560;2022-10-16T08:30:49;2.67;;;1.58;;
20090;SDS011;10205;49.678;6.560;2022-10-16T08:33:18;1.85;;;1.20;;
20090;SDS011;10205;49.678;6.560;2022-10-16T08:35:50;1.23;;;1.08;;
20090;SDS011;10205;49.678;6.560;2022-10-16T08:38:20;1.48;;;1.23;;
20090;SDS011;10205;49.678;6.560;2022-10-16T08:40:48;1.50;;;1.23;;
20090;SDS011;10205;49.678;6.560;2022-10-16T08:43:20;2.63;;;1.60;;
20090;SDS011;10205;49.678;6.560;2022-10-16T08:46:08;1.00;;;1.00;;
20090;SDS011;10205;49.678;6.560;2022-10-16T08:48:51;1.73;;;1.33;;
20090;SDS011;10205;49.678;6.560;2022-10-16T08:51:22;1.60;;;1.10;;
20090;SDS011;10205;49.678;6.560;2022-10-16T08:53:54;1.17;;;0.95;;
20090;SDS011;10205;49.678;6.560;2022-10-16T08:56:24;3.72;;;1.05;;
20090;SDS011;10205;49.678;6.560;2022-10-16T08:58:52;1.58;;;1.30;;
20090;SDS011;10205;49.678;6.560;2022-10-16T09:01:21;2.35;;;0.90;;
20090;SDS011;10205;49.678;6.560;2022-10-16T09:04:00;1.70;;;1.00;;
20090;SDS011;10205;49.678;6.560;2022-10-16T09:06:53;0.85;;;0.85;;
20090;SDS011;10205;49.678;6.560;2022-10-16T09:09:31;3.95;;;1.40;;
20090;SDS011;10205;49.678;6.560;2022-10-16T09:12:19;1.30;;;1.05;;
20090;SDS011;10205;49.678;6.560;2022-10-16T09:14:59;1.35;;;1.17;;
20090;SDS011;10205;49.678;6.560;2022-10-16T09:17:46;1.13;;;1.02;;
20090;SDS011;10205;49.678;6.560;2022-10-16T09:20:31;1.30;;;1.10;;
20090;SDS011;10205;49.678;6.560;2022-10-16T09:28:53;4.90;;;1.60;;
20090;SDS011;10205;49.678;6.560;2022-10-16T09:31:25;1.52;;;1.30;;
20090;SDS011;10205;49.678;6.560;2022-10-16T09:33:53;2.55;;;1.20;;
20090;SDS011;10205;49.678;6.560;2022-10-16T09:36:24;2.10;;;1.20;;
20090;SDS011;10205;49.678;6.560;2022-10-16T09:39:04;1.20;;;1.10;;
20090;SDS011;10205;49.678;6.560;2022-10-16T09:41:34;3.72;;;0.88;;
20090;SDS011;10205;49.678;6.560;2022-10-16T09:44:05;3.42;;;1.35;;
20090;SDS011;10205;49.678;6.560;2022-10-16T09:46:46;1.05;;;0.95;;
20090;SDS011;10205;49.678;6.560;2022-10-16T09:49:19;2.78;;;1.33;;
20090;SDS011;10205;49.678;6.560;2022-10-16T09:51:49;1.35;;;1.20;;
20090;SDS011;10205;49.678;6.560;2022-10-16T09:54:28;1.38;;;1.20;;
20090;SDS011;10205;49.678;6.560;2022-10-16T09:57:03;1.27;;;1.17;;
20090;SDS011;10205;49.678;6.560;2022-10-16T09:59:34;1.88;;;1.00;;
20090;SDS011;10205;49.678;6.560;2022-10-16T10:02:13;1.70;;;0.70;;
20090;SDS011;10205;49.678;6.560;2022-10-16T10:04:44;1.80;;;1.00;;
20090;SDS011;10205;49.678;6.560;2022-10-16T10:07:20;1.33;;;1.13;;
20090;SDS011;10205;49.678;6.560;2022-10-16T10:09:51;1.38;;;1.15;;
20090;SDS011;10205;49.678;6.560;2022-10-16T10:12:21;2.75;;;0.88;;
20090;SDS011;10205;49.678;6.560;2022-10-16T10:14:52;1.10;;;0.80;;
20090;SDS011;10205;49.678;6.560;2022-10-16T10:17:22;1.15;;;0.90;;
20090;SDS011;10205;49.678;6.560;2022-10-16T10:19:52;1.70;;;0.98;;
20090;SDS011;10205;49.678;6.560;2022-10-16T10:22:26;1.10;;;1.00;;
20090;SDS011;10205;49.678;6.560;2022-10-16T10:25:04;1.10;;;0.98;;
20090;SDS011;10205;49.678;6.560;2022-10-16T10:27:53;2.08;;;0.90;;
20090;SDS011;10205;49.678;6.560;2022-10-16T10:30:55;1.30;;;0.90;;
20090;SDS011;10205;49.678;6.560;2022-10-16T10:33:31;1.00;;;0.90;;
20090;SDS011;10205;49.678;6.560;2022-10-16T10:36:14;1.70;;;0.88;;
20090;SDS011;10205;49.678;6.560;2022-10-16T10:38:54;1.10;;;1.00;;
20090;SDS011;10205;49.678;6.560;2022-10-16T10:41:30;1.35;;;0.80;;
20090;SDS011;10205;49.678;6.560;2022-10-16T10:44:33;1.00;;;0.90;;
20090;SDS011;10205;49.678;6.560;2022-10-16T10:47:24;1.73;;;1.00;;
20090;SDS011;10205;49.678;6.560;2022-10-16T10:50:08;0.80;;;0.80;;
20090;SDS011;10205;49.678;6.560;2022-10-16T10:52:53;1.63;;;0.88;;
20090;SDS011;10205;49.678;6.560;2022-10-16T10:55:36;1.23;;;0.95;;
20090;SDS011;10205;49.678;6.560;2022-10-16T10:58:17;1.10;;;0.90;;
20090;SDS011;10205;49.678;6.560;2022-10-16T11:01:14;1.63;;;1.02;;
20090;SDS011;10205;49.678;6.560;2022-10-16T11:07:09;1.25;;;1.08;;
20090;SDS011;10205;49.678;6.560;2022-10-16T11:09:45;1.23;;;1.10;;
20090;SDS011;10205;49.678;6.560;2022-10-16T11:12:19;2.00;;;1.25;;
20090;SDS011;10205;49.678;6.560;2022-10-16T11:14:54;1.60;;;1.10;;
20090;SDS011;10205;49.678;6.560;2022-10-16T11:17:41;1.70;;;1.42;;
20090;SDS011;10205;49.678;6.560;2022-10-16T11:20:18;1.48;;;1.15;;
20090;SDS011;10205;49.678;6.560;2022-10-16T11:22:51;1.70;;;1.23;;
20090;SDS011;10205;49.678;6.560;2022-10-16T11:25:25;3.35;;;1.48;;
20090;SDS011;10205;49.678;6.560;2022-10-16T11:27:58;3.45;;;1.40;;
20090;SDS011;10205;49.678;6.560;2022-10-16T11:30:39;1.48;;;1.30;;
20090;SDS011;10205;49.678;6.560;2022-10-16T11:33:26;1.20;;;1.10;;
20090;SDS011;10205;49.678;6.560;2022-10-16T11:36:03;3.17;;;1.55;;
20090;SDS011;10205;49.678;6.560;2022-10-16T11:38:42;1.95;;;1.30;;
20090;SDS011;10205;49.678;6.560;2022-10-16T11:41:18;1.65;;;1.13;;
20090;SDS011;10205;49.678;6.560;2022-10-16T11:43:58;2.35;;;1.10;;
20090;SDS011;10205;49.678;6.560;2022-10-16T11:46:43;2.05;;;1.40;;
20090;SDS011;10205;49.678;6.560;2022-10-16T11:49:20;2.22;;;1.50;;
20090;SDS011;10205;49.678;6.560;2022-10-16T11:51:55;2.35;;;1.63;;
20090;SDS011;10205;49.678;6.560;2022-10-16T11:54:33;1.85;;;1.50;;
20090;SDS011;10205;49.678;6.560;2022-10-16T11:57:12;3.45;;;1.40;;
20090;SDS011;10205;49.678;6.560;2022-10-16T11:59:46;2.75;;;1.60;;
20090;SDS011;10205;49.678;6.560;2022-10-16T12:02:30;3.47;;;1.60;;
20090;SDS011;10205;49.678;6.560;2022-10-16T12:05:16;1.98;;;1.55;;
20090;SDS011;10205;49.678;6.560;2022-10-16T12:07:54;2.53;;;1.52;;
20090;SDS011;10205;49.678;6.560;2022-10-16T12:10:32;2.80;;;1.70;;
20090;SDS011;10205;49.678;6.560;2022-10-16T12:13:02;2.90;;;1.40;;
20090;SDS011;10205;49.678;6.560;2022-10-16T12:15:31;2.05;;;1.50;;
20090;SDS011;10205;49.678;6.560;2022-10-16T12:18:00;2.50;;;1.35;;
20090;SDS011;10205;49.678;6.560;2022-10-16T12:20:29;1.55;;;1.40;;
20090;SDS011;10205;49.678;6.560;2022-10-16T12:23:00;3.63;;;1.42;;
20090;SDS011;10205;49.678;6.560;2022-10-16T12:25:30;2.92;;;1.45;;
20090;SDS011;10205;49.678;6.560;2022-10-16T12:28:01;1.52;;;1.27;;
20090;SDS011;10205;49.678;6.560;2022-10-16T12:30:32;2.72;;;1.70;;
20090;SDS011;10205;49.678;6.560;2022-10-16T12:33:03;2.75;;;1.27;;
20090;SDS011;10205;49.678;6.560;2022-10-16T12:35:45;3.33;;;1.40;;
20090;SDS011;10205;49.678;6.560;2022-10-16T12:38:16;2.47;;;1.60;;
20090;SDS011;10205;49.678;6.560;2022-10-16T12:40:47;4.68;;;1.65;;
20090;SDS011;10205;49.678;6.560;2022-10-16T12:43:35;2.05;;;1.33;;
20090;SDS011;10205;49.678;6.560;2022-10-16T12:46:21;1.67;;;1.40;;
20090;SDS011;10205;49.678;6.560;2022-10-16T12:49:21;1.50;;;1.20;;
20090;SDS011;10205;49.678;6.560;2022-10-16T12:51:56;1.60;;;1.30;;
20090;SDS011;10205;49.678;6.560;2022-10-16T12:54:27;1.75;;;1.50;;
20090;SDS011;10205;49.678;6.560;2022-10-16T12:57:00;2.15;;;1.48;;
20090;SDS011;10205;49.678;6.560;2022-10-16T12:59:51;1.85;;;1.67;;
20090;SDS011;10205;49.678;6.560;2022-10-16T13:05:59;1.85;;;1.55;;
20090;SDS011;10205;49.678;6.560;2022-10-16T13:08:46;4.60;;;2.05;;
20090;SDS011;10205;49.678;6.560;2022-10-16T13:11:38;1.70;;;1.52;;
20090;SDS011;10205;49.678;6.560;2022-10-16T13:14:32;3.38;;;1.98;;
20090;SDS011;10205;49.678;6.560;2022-10-16T13:17:30;2.25;;;1.55;;
20090;SDS011;10205;49.678;6.560;2022-10-16T13:20:11;2.50;;;1.65;;
20090;SDS011;10205;49.678;6.560;2022-10-16T13:22:50;1.95;;;1.50;;
20090;SDS011;10205;49.678;6.560;2022-10-16T13:25:31;3.05;;;1.75;;
20090;SDS011;10205;49.678;6.560;2022-10-16T13:28:15;2.70;;;2.13;;
20090;SDS011;10205;49.678;6.560;2022-10-16T13:30:51;5.00;;;2.13;;
20090;SDS011;10205;49.678;6.560;2022-10-16T13:33:32;4.15;;;2.08;;
20090;SDS011;10205;49.678;6.560;2022-10-16T13:36:02;3.50;;;2.42;;
20090;SDS011;10205;49.678;6.560;2022-10-16T13:38:32;2.78;;;1.90;;
20090;SDS011;10205;49.678;6.560;2022-10-16T13:41:02;2.97;;;1.60;;
20090;SDS011;10205;49.678;6.560;2022-10-16T13:43:34;2.25;;;2.03;;
20090;SDS011;10205;49.678;6.560;2022-10-16T13:46:04;2.20;;;2.00;;
20090;SDS011;10205;49.678;6.560;2022-10-16T13:48:38;2.30;;;1.88;;
20090;SDS011;10205;49.678;6.560;2022-10-16T13:51:06;3.50;;;2.30;;
20090;SDS011;10205;49.678;6.560;2022-10-16T13:53:40;2.97;;;2.28;;
20090;SDS011;10205;49.678;6.560;2022-10-16T13:56:12;2.03;;;1.85;;
20090;SDS011;10205;49.678;6.560;2022-10-16T13:58:43;3.85;;;2.75;;
20090;SDS011;10205;49.678;6.560;2022-10-16T14:01:16;2.78;;;2.03;;
20090;SDS011;10205;49.678;6.560;2022-10-16T14:04:00;4.30;;;2.15;;
20090;SDS011;10205;49.678;6.560;2022-10-16T14:06:31;3.03;;;2.33;;
20090;SDS011;10205;49.678;6.560;2022-10-16T14:09:03;2.08;;;1.88;;
20090;SDS011;10205;49.678;6.560;2022-10-16T14:11:34;2.28;;;2.03;;
20090;SDS011;10205;49.678;6.560;2022-10-16T14:14:13;2.38;;;1.80;;
20090;SDS011;10205;49.678;6.560;2022-10-16T14:16:42;3.75;;;2.15;;
20090;SDS011;10205;49.678;6.560;2022-10-16T14:19:13;1.58;;;1.48;;
20090;SDS011;10205;49.678;6.560;2022-10-16T14:21:46;3.22;;;1.98;;
20090;SDS011;10205;49.678;6.560;2022-10-16T14:24:25;2.30;;;1.85;;
20090;SDS011;10205;49.678;6.560;2022-10-16T14:26:58;4.40;;;1.90;;
20090;SDS011;10205;49.678;6.560;2022-10-16T14:29:28;1.80;;;1.70;;
20090;SDS011;10205;49.678;6.560;2022-10-16T14:31:58;2.78;;;1.70;;
20090;SDS011;10205;49.678;6.560;2022-10-16T14:34:28;2.45;;;1.95;;
20090;SDS011;10205;49.678;6.560;2022-10-16T14:36:58;1.90;;;1.80;;
20090;SDS011;10205;49.678;6.560;2022-10-16T14:39:32;5.18;;;2.08;;
20090;SDS011;10205;49.678;6.560;2022-10-16T14:42:00;2.67;;;2.08;;
20090;SDS011;10205;49.678;6.560;2022-10-16T14:44:30;1.88;;;1.75;;
20090;SDS011;10205;49.678;6.560;2022-10-16T14:47:06;2.40;;;2.10;;
20090;SDS011;10205;49.678;6.560;2022-10-16T14:49:39;2.50;;;1.95;;
20090;SDS011;10205;49.678;6.560;2022-10-16T14:52:08;4.05;;;2.17;;
20090;SDS011;10205;49.678;6.560;2022-10-16T14:54:37;4.45;;;2.15;;
20090;SDS011;10205;49.678;6.560;2022-10-16T14:57:04;2.45;;;2.13;;
20090;SDS011;10205;49.678;6.560;2022-10-16T14:59:40;2.90;;;2.03;;
20090;SDS011;10205;49.678;6.560;2022-10-16T15:02:18;2.90;;;2.17;;
20090;SDS011;10205;49.678;6.560;2022-10-16T15:04:54;2.85;;;2.10;;
20090;SDS011;10205;49.678;6.560;2022-10-16T15:07:22;2.47;;;2.28;;
20090;SDS011;10205;49.678;6.560;2022-10-16T15:09:50;3.35;;;2.22;;
20090;SDS011;10205;49.678;6.560;2022-10-16T15:12:18;2.50;;;2.30;;
20090;SDS011;10205;49.678;6.560;2022-10-16T15:14:50;7.20;;;2.78;;
20090;SDS011;10205;49.678;6.560;2022-10-16T15:17:17;3.90;;;2.65;;
20090;SDS011;10205;49.678;6.560;2022-10-16T15:19:44;2.63;;;2.33;;
20090;SDS011;10205;49.678;6.560;2022-10-16T15:22:12;2.63;;;2.15;;
20090;SDS011;10205;49.678;6.560;2022-10-16T15:24:39;3.00;;;2.22;;
20090;SDS011;10205;49.678;6.560;2022-10-16T15:27:06;2.30;;;2.10;;
20090;SDS011;10205;49.678;6.560;2022-10-16T15:29:33;4.25;;;2.03;;
20090;SDS011;10205;49.678;6.560;2022-10-16T15:32:02;3.22;;;2.90;;